NSZ3531 LMML-EKCH
Flight info
| Callsign | NSZ3531 |
|---|---|
| Flight time | N/A |
| Altitude | 34000 |
| Route | VESOD DCT INROF DCT XOLTA/N0441F360 DCT PETOV DCT ROPAG DCT LOKVU DCT ODLIV DCT HDO DCT LUROS DCT USEDU M602 PENET T298 MONAK |
| Aircraft | B738/M-SDE3GHIJ1LRWXY/SB1 |
Departure
| Time | N/A |
|---|---|
| Airport | Malta International Airport (LMML) |
Arrival
| Time | 2026-04-24 21:51 |
|---|---|
| Airport | Copenhagen Kastrup Airport (EKCH) |
| Time | Latitude | Longitude | Altitude | Speed | Heading |
|---|---|---|---|---|---|
| 2026-04-24 18:54 | 37.66993 | 16.69894 | 36069 ft | 420 kts | 352° |
| 2026-04-24 18:55 | 37.75628 | 16.68377 | 36086 ft | 420 kts | 352° |
| 2026-04-24 18:56 | 37.81411 | 16.67359 | 36088 ft | 420 kts | 352° |
| 2026-04-24 18:56 | 37.87196 | 16.66340 | 36091 ft | 420 kts | 352° |
| 2026-04-24 18:57 | 37.92980 | 16.65318 | 36091 ft | 420 kts | 353° |
| 2026-04-24 18:57 | 37.98767 | 16.64295 | 36089 ft | 420 kts | 353° |
| 2026-04-24 18:58 | 38.04554 | 16.63270 | 36089 ft | 420 kts | 353° |
| 2026-04-24 18:58 | 38.10341 | 16.62243 | 36093 ft | 420 kts | 353° |
| 2026-04-24 18:59 | 38.16128 | 16.61214 | 36091 ft | 420 kts | 353° |
| 2026-04-24 18:59 | 38.21915 | 16.60184 | 36099 ft | 420 kts | 353° |
| 2026-04-24 19:00 | 38.27703 | 16.59153 | 36096 ft | 420 kts | 353° |
| 2026-04-24 19:00 | 38.33491 | 16.58120 | 36102 ft | 420 kts | 353° |
| 2026-04-24 19:01 | 38.39279 | 16.57084 | 36103 ft | 420 kts | 353° |
| 2026-04-24 19:01 | 38.45069 | 16.56046 | 36101 ft | 420 kts | 353° |
| 2026-04-24 19:02 | 38.49886 | 16.55182 | 36105 ft | 421 kts | 353° |
| 2026-04-24 19:02 | 38.56668 | 16.53964 | 36105 ft | 421 kts | 353° |
| 2026-04-24 19:03 | 38.61497 | 16.53094 | 36100 ft | 422 kts | 353° |
| 2026-04-24 19:03 | 38.68258 | 16.51875 | 36105 ft | 422 kts | 354° |
| 2026-04-24 19:04 | 38.74082 | 16.50823 | 36105 ft | 423 kts | 353° |
| 2026-04-24 19:04 | 38.78923 | 16.49948 | 36106 ft | 423 kts | 353° |
| 2026-04-24 19:05 | 38.84758 | 16.48891 | 36109 ft | 423 kts | 353° |
| 2026-04-24 19:05 | 38.91536 | 16.47660 | 36110 ft | 423 kts | 354° |
| 2026-04-24 19:06 | 38.97375 | 16.46599 | 36108 ft | 424 kts | 354° |
| 2026-04-24 19:06 | 39.03216 | 16.45535 | 36109 ft | 424 kts | 354° |
| 2026-04-24 19:07 | 39.08075 | 16.44649 | 36112 ft | 424 kts | 354° |
| 2026-04-24 19:07 | 39.13932 | 16.43579 | 36112 ft | 425 kts | 354° |
| 2026-04-24 19:08 | 39.20736 | 16.42334 | 36110 ft | 425 kts | 354° |
| 2026-04-24 19:08 | 39.25602 | 16.41442 | 36124 ft | 425 kts | 354° |
| 2026-04-24 19:09 | 39.31464 | 16.40366 | 36106 ft | 425 kts | 354° |
| 2026-04-24 19:09 | 39.37332 | 16.39286 | 36117 ft | 427 kts | 354° |
| 2026-04-24 19:10 | 39.43213 | 16.38203 | 36120 ft | 427 kts | 354° |
| 2026-04-24 19:10 | 39.49109 | 16.37115 | 36118 ft | 428 kts | 354° |
| 2026-04-24 19:11 | 39.54973 | 16.36031 | 36107 ft | 429 kts | 354° |
| 2026-04-24 19:11 | 39.60885 | 16.34936 | 36111 ft | 430 kts | 354° |
| 2026-04-24 19:12 | 39.66805 | 16.33839 | 36111 ft | 430 kts | 354° |
| 2026-04-24 19:12 | 39.72730 | 16.32738 | 36109 ft | 430 kts | 354° |
| 2026-04-24 19:13 | 39.77659 | 16.31820 | 36103 ft | 431 kts | 354° |
| 2026-04-24 19:13 | 39.84558 | 16.30534 | 36110 ft | 431 kts | 354° |
| 2026-04-24 19:14 | 39.90501 | 16.29424 | 36109 ft | 432 kts | 354° |
| 2026-04-24 19:14 | 39.96454 | 16.28310 | 36100 ft | 433 kts | 354° |
| 2026-04-24 19:15 | 40.02373 | 16.27201 | 36101 ft | 432 kts | 355° |
| 2026-04-24 19:15 | 40.08328 | 16.26083 | 36095 ft | 432 kts | 355° |
| 2026-04-24 19:16 | 40.17243 | 16.24404 | 36110 ft | 431 kts | 355° |
| 2026-04-24 19:16 | 40.23148 | 16.23291 | 36094 ft | 432 kts | 355° |
| 2026-04-24 19:17 | 40.29088 | 16.22169 | 36100 ft | 431 kts | 355° |
| 2026-04-24 19:17 | 40.35034 | 16.21044 | 36110 ft | 432 kts | 355° |
| 2026-04-24 19:18 | 40.40974 | 16.19918 | 36107 ft | 432 kts | 355° |
| 2026-04-24 19:18 | 40.46924 | 16.18787 | 36102 ft | 432 kts | 355° |
| 2026-04-24 19:19 | 40.52835 | 16.17663 | 36107 ft | 432 kts | 355° |
| 2026-04-24 19:19 | 40.58795 | 16.16527 | 36103 ft | 433 kts | 355° |
| 2026-04-24 19:20 | 40.64762 | 16.15388 | 36089 ft | 434 kts | 355° |
| 2026-04-24 19:20 | 40.70745 | 16.14243 | 36100 ft | 435 kts | 355° |
| 2026-04-24 19:21 | 40.76692 | 16.13103 | 36102 ft | 435 kts | 355° |
| 2026-04-24 19:21 | 40.82691 | 16.11951 | 36107 ft | 435 kts | 355° |
| 2026-04-24 19:22 | 40.88692 | 16.10797 | 36102 ft | 436 kts | 355° |
| 2026-04-24 19:22 | 40.94693 | 16.09640 | 36104 ft | 436 kts | 355° |
| 2026-04-24 19:23 | 41.00654 | 16.08490 | 36100 ft | 436 kts | 355° |
| 2026-04-24 19:23 | 41.06654 | 16.07329 | 36073 ft | 436 kts | 355° |
| 2026-04-24 19:24 | 41.12646 | 16.06168 | 36086 ft | 435 kts | 355° |
| 2026-04-24 19:24 | 41.18633 | 16.05006 | 36085 ft | 435 kts | 355° |
| 2026-04-24 19:25 | 41.24578 | 16.03850 | 36082 ft | 435 kts | 355° |
| 2026-04-24 19:25 | 41.30562 | 16.02684 | 36079 ft | 435 kts | 355° |
| 2026-04-24 19:26 | 41.36543 | 16.01516 | 36073 ft | 434 kts | 355° |
| 2026-04-24 19:26 | 41.42518 | 16.00347 | 36079 ft | 434 kts | 355° |
| 2026-04-24 19:27 | 41.48452 | 15.99185 | 36069 ft | 434 kts | 355° |
| 2026-04-24 19:27 | 41.54417 | 15.98014 | 36082 ft | 433 kts | 355° |
| 2026-04-24 19:28 | 41.60372 | 15.96843 | 36083 ft | 432 kts | 355° |
| 2026-04-24 19:28 | 41.66322 | 15.95670 | 36086 ft | 432 kts | 354° |
| 2026-04-24 19:29 | 41.75199 | 15.93925 | 36079 ft | 431 kts | 354° |
| 2026-04-24 19:30 | 41.81136 | 15.92745 | 36090 ft | 432 kts | 354° |
| 2026-04-24 19:30 | 41.87070 | 15.91566 | 36091 ft | 431 kts | 354° |
| 2026-04-24 19:31 | 41.93009 | 15.90385 | 36101 ft | 431 kts | 354° |
| 2026-04-24 19:31 | 41.98904 | 15.89212 | 36098 ft | 431 kts | 354° |
| 2026-04-24 19:32 | 42.04836 | 15.88029 | 36099 ft | 431 kts | 354° |
| 2026-04-24 19:32 | 42.10766 | 15.86844 | 36100 ft | 431 kts | 354° |
| 2026-04-24 19:33 | 42.16689 | 15.85658 | 36094 ft | 430 kts | 354° |
| 2026-04-24 19:33 | 42.22611 | 15.84470 | 36087 ft | 430 kts | 354° |
| 2026-04-24 19:34 | 42.28492 | 15.83288 | 36085 ft | 430 kts | 354° |
| 2026-04-24 19:34 | 42.34409 | 15.82097 | 36076 ft | 430 kts | 354° |
| 2026-04-24 19:35 | 42.40323 | 15.80904 | 36086 ft | 430 kts | 354° |
| 2026-04-24 19:35 | 42.46194 | 15.79717 | 36085 ft | 429 kts | 354° |
| 2026-04-24 19:36 | 42.52107 | 15.78520 | 36081 ft | 430 kts | 354° |
| 2026-04-24 19:36 | 42.58017 | 15.77320 | 36083 ft | 429 kts | 354° |
| 2026-04-24 19:37 | 42.63927 | 15.76119 | 36080 ft | 429 kts | 354° |
| 2026-04-24 19:37 | 42.69798 | 15.74944 | 36082 ft | 429 kts | 356° |
| 2026-04-24 19:38 | 42.75720 | 15.74928 | 36080 ft | 425 kts | 6° |
| 2026-04-24 19:38 | 42.81620 | 15.75368 | 36078 ft | 425 kts | 6° |
| 2026-04-24 19:39 | 42.87518 | 15.75791 | 36078 ft | 425 kts | 6° |
| 2026-04-24 19:39 | 42.93381 | 15.76168 | 36074 ft | 425 kts | 6° |
| 2026-04-24 19:40 | 42.99279 | 15.76526 | 36076 ft | 424 kts | 6° |
| 2026-04-24 19:40 | 43.05167 | 15.76879 | 36071 ft | 423 kts | 6° |
| 2026-04-24 19:41 | 43.11040 | 15.77231 | 36067 ft | 422 kts | 6° |
| 2026-04-24 19:41 | 43.16858 | 15.77582 | 36070 ft | 421 kts | 6° |
| 2026-04-24 19:42 | 43.22701 | 15.77935 | 36065 ft | 420 kts | 6° |
| 2026-04-24 19:42 | 43.28529 | 15.78288 | 36064 ft | 419 kts | 6° |
| 2026-04-24 19:43 | 43.34347 | 15.78641 | 36047 ft | 418 kts | 5° |
| 2026-04-24 19:43 | 43.40153 | 15.78994 | 36055 ft | 418 kts | 5° |
| 2026-04-24 19:44 | 43.45928 | 15.79346 | 36047 ft | 418 kts | 5° |
| 2026-04-24 19:44 | 43.51746 | 15.79701 | 36032 ft | 419 kts | 5° |
| 2026-04-24 19:45 | 43.57576 | 15.80058 | 36043 ft | 419 kts | 5° |
| 2026-04-24 19:45 | 43.63410 | 15.80415 | 36040 ft | 420 kts | 5° |
| 2026-04-24 19:46 | 43.69222 | 15.80772 | 36026 ft | 421 kts | 5° |
| 2026-04-24 19:46 | 43.75081 | 15.81132 | 36034 ft | 422 kts | 5° |
| 2026-04-24 19:47 | 43.80948 | 15.81493 | 36036 ft | 422 kts | 5° |
| 2026-04-24 19:47 | 43.86826 | 15.81856 | 36032 ft | 423 kts | 5° |
| 2026-04-24 19:48 | 43.92709 | 15.82220 | 36022 ft | 423 kts | 5° |
| 2026-04-24 19:48 | 44.01488 | 15.82764 | 36033 ft | 423 kts | 5° |
| 2026-04-24 19:49 | 44.13222 | 15.83494 | 36050 ft | 421 kts | 5° |
| 2026-04-24 19:50 | 44.24887 | 15.84223 | 36050 ft | 420 kts | 5° |
| 2026-04-24 19:51 | 44.33639 | 15.84771 | 36053 ft | 419 kts | 5° |
| 2026-04-24 19:52 | 44.42376 | 15.85321 | 36064 ft | 418 kts | 5° |
| 2026-04-24 19:52 | 44.48150 | 15.85685 | 36054 ft | 418 kts | 5° |
| 2026-04-24 19:53 | 44.53963 | 15.86052 | 36062 ft | 418 kts | 5° |
| 2026-04-24 19:54 | 44.62669 | 15.86603 | 36079 ft | 417 kts | 5° |
| 2026-04-24 19:54 | 44.68474 | 15.86971 | 36066 ft | 418 kts | 5° |
| 2026-04-24 19:55 | 44.73305 | 15.87279 | 36065 ft | 418 kts | 5° |
| 2026-04-24 19:55 | 44.80058 | 15.87709 | 36046 ft | 418 kts | 5° |
| 2026-04-24 19:56 | 44.85870 | 15.88080 | 36059 ft | 418 kts | 5° |
| 2026-04-24 19:56 | 44.91633 | 15.88449 | 36045 ft | 417 kts | 5° |
| 2026-04-24 19:57 | 44.97426 | 15.88820 | 36058 ft | 416 kts | 5° |
| 2026-04-24 19:57 | 45.03214 | 15.89192 | 36043 ft | 416 kts | 5° |
| 2026-04-24 19:58 | 45.08994 | 15.89564 | 36043 ft | 416 kts | 5° |
| 2026-04-24 19:58 | 45.14771 | 15.89937 | 36044 ft | 416 kts | 5° |
| 2026-04-24 19:59 | 45.20515 | 15.90308 | 36042 ft | 416 kts | 5° |
| 2026-04-24 19:59 | 45.26302 | 15.90683 | 36036 ft | 417 kts | 4° |
| 2026-04-24 20:00 | 45.32092 | 15.91059 | 36037 ft | 417 kts | 4° |
| 2026-04-24 20:00 | 45.37889 | 15.91436 | 36040 ft | 417 kts | 4° |
| 2026-04-24 20:01 | 45.43645 | 15.91811 | 36034 ft | 417 kts | 4° |
| 2026-04-24 20:01 | 45.49451 | 15.92190 | 36034 ft | 417 kts | 4° |
| 2026-04-24 20:02 | 45.54272 | 15.92505 | 36026 ft | 417 kts | 4° |
| 2026-04-24 20:02 | 45.61055 | 15.92950 | 36029 ft | 417 kts | 4° |
| 2026-04-24 20:03 | 45.66813 | 15.93328 | 36031 ft | 417 kts | 4° |
| 2026-04-24 20:03 | 45.72612 | 15.93710 | 36031 ft | 417 kts | 4° |
| 2026-04-24 20:04 | 45.78407 | 15.94092 | 36048 ft | 417 kts | 4° |
| 2026-04-24 20:04 | 45.84194 | 15.94475 | 36047 ft | 416 kts | 4° |
| 2026-04-24 20:05 | 45.89981 | 15.94858 | 36028 ft | 416 kts | 4° |
| 2026-04-24 20:05 | 45.95716 | 15.95239 | 36035 ft | 416 kts | 4° |
| 2026-04-24 20:06 | 46.01497 | 15.95624 | 36041 ft | 416 kts | 4° |
| 2026-04-24 20:06 | 46.07279 | 15.96009 | 36045 ft | 416 kts | 4° |
| 2026-04-24 20:07 | 46.12084 | 15.96330 | 36038 ft | 416 kts | 4° |
| 2026-04-24 20:07 | 46.18809 | 15.96780 | 36040 ft | 416 kts | 4° |
| 2026-04-24 20:08 | 46.24591 | 15.97169 | 36035 ft | 416 kts | 4° |
| 2026-04-24 20:08 | 46.30368 | 15.97539 | 36049 ft | 415 kts | 2° |
| 2026-04-24 20:09 | 46.36127 | 15.96742 | 36038 ft | 416 kts | 353° |
| 2026-04-24 20:09 | 46.41825 | 15.95571 | 36038 ft | 416 kts | 353° |
| 2026-04-24 20:10 | 46.47557 | 15.94416 | 36046 ft | 416 kts | 353° |
| 2026-04-24 20:10 | 46.53287 | 15.93292 | 36046 ft | 415 kts | 353° |
| 2026-04-24 20:11 | 46.59013 | 15.92178 | 36043 ft | 415 kts | 353° |
| 2026-04-24 20:11 | 46.64694 | 15.91073 | 36045 ft | 414 kts | 353° |
| 2026-04-24 20:12 | 46.70405 | 15.89959 | 36038 ft | 414 kts | 353° |
| 2026-04-24 20:12 | 46.76113 | 15.88843 | 36048 ft | 414 kts | 353° |
| 2026-04-24 20:13 | 46.81825 | 15.87724 | 36039 ft | 414 kts | 353° |
| 2026-04-24 20:13 | 46.87499 | 15.86609 | 36037 ft | 414 kts | 353° |
| 2026-04-24 20:14 | 46.93210 | 15.85485 | 36063 ft | 414 kts | 353° |
| 2026-04-24 20:14 | 46.98922 | 15.84358 | 36053 ft | 414 kts | 353° |
| 2026-04-24 20:15 | 47.04623 | 15.83231 | 36053 ft | 413 kts | 353° |
| 2026-04-24 20:15 | 47.10317 | 15.82103 | 36046 ft | 413 kts | 353° |
| 2026-04-24 20:16 | 47.15964 | 15.80982 | 36081 ft | 412 kts | 353° |
| 2026-04-24 20:16 | 47.21658 | 15.79895 | 36070 ft | 412 kts | 356° |
| 2026-04-24 20:17 | 47.27384 | 15.79847 | 36063 ft | 412 kts | 1° |
| 2026-04-24 20:17 | 47.35994 | 15.80160 | 36072 ft | 413 kts | 1° |
| 2026-04-24 20:18 | 47.41707 | 15.80319 | 36068 ft | 414 kts | 0° |
| 2026-04-24 20:18 | 47.47474 | 15.80451 | 36088 ft | 415 kts | 0° |
| 2026-04-24 20:19 | 47.53254 | 15.80573 | 36076 ft | 416 kts | 0° |
| 2026-04-24 20:19 | 47.59046 | 15.80696 | 36085 ft | 417 kts | 360° |
| 2026-04-24 20:20 | 47.64811 | 15.80818 | 36071 ft | 417 kts | 0° |
| 2026-04-24 20:20 | 47.70603 | 15.80941 | 36068 ft | 416 kts | 360° |
| 2026-04-24 20:21 | 47.76385 | 15.81066 | 36062 ft | 414 kts | 360° |
| 2026-04-24 20:21 | 47.82143 | 15.81189 | 36069 ft | 413 kts | 360° |
| 2026-04-24 20:22 | 47.87850 | 15.81312 | 36059 ft | 412 kts | 359° |
| 2026-04-24 20:22 | 47.93573 | 15.81429 | 36057 ft | 410 kts | 360° |
| 2026-04-24 20:23 | 47.99281 | 15.81556 | 36077 ft | 410 kts | 359° |
| 2026-04-24 20:23 | 48.04998 | 15.81682 | 36073 ft | 411 kts | 359° |
| 2026-04-24 20:24 | 48.10674 | 15.81805 | 36070 ft | 411 kts | 359° |
| 2026-04-24 20:24 | 48.16400 | 15.81930 | 36062 ft | 411 kts | 359° |
| 2026-04-24 20:25 | 48.22120 | 15.82054 | 36059 ft | 411 kts | 359° |
| 2026-04-24 20:25 | 48.27849 | 15.82179 | 36057 ft | 412 kts | 359° |
| 2026-04-24 20:26 | 48.33537 | 15.82304 | 36056 ft | 411 kts | 359° |
| 2026-04-24 20:26 | 48.39260 | 15.82429 | 36061 ft | 411 kts | 359° |
| 2026-04-24 20:27 | 48.44979 | 15.82555 | 36060 ft | 411 kts | 358° |
| 2026-04-24 20:27 | 48.50696 | 15.82681 | 36057 ft | 411 kts | 358° |
| 2026-04-24 20:28 | 48.56422 | 15.82808 | 36051 ft | 411 kts | 358° |
| 2026-04-24 20:28 | 48.62105 | 15.82934 | 36060 ft | 411 kts | 358° |
| 2026-04-24 20:29 | 48.67834 | 15.83061 | 36054 ft | 412 kts | 358° |
| 2026-04-24 20:29 | 48.73567 | 15.83188 | 36058 ft | 412 kts | 358° |
| 2026-04-24 20:30 | 48.79307 | 15.83317 | 36064 ft | 413 kts | 358° |
| 2026-04-24 20:30 | 48.85014 | 15.83413 | 36063 ft | 412 kts | 355° |
| 2026-04-24 20:31 | 48.90595 | 15.81827 | 36064 ft | 407 kts | 338° |
| 2026-04-24 20:31 | 48.95874 | 15.78734 | 36064 ft | 407 kts | 336° |
| 2026-04-24 20:32 | 49.01143 | 15.75592 | 36065 ft | 406 kts | 337° |
| 2026-04-24 20:32 | 49.06413 | 15.72474 | 36064 ft | 406 kts | 337° |
| 2026-04-24 20:33 | 49.11649 | 15.69394 | 36068 ft | 406 kts | 337° |
| 2026-04-24 20:33 | 49.16914 | 15.66297 | 36069 ft | 405 kts | 336° |
| 2026-04-24 20:34 | 49.22176 | 15.63197 | 36072 ft | 405 kts | 336° |
| 2026-04-24 20:34 | 49.27419 | 15.60100 | 36083 ft | 404 kts | 336° |
| 2026-04-24 20:35 | 49.32659 | 15.56998 | 36080 ft | 403 kts | 336° |
| 2026-04-24 20:35 | 49.37849 | 15.53918 | 36101 ft | 402 kts | 336° |
| 2026-04-24 20:36 | 49.43068 | 15.50814 | 36094 ft | 402 kts | 336° |
| 2026-04-24 20:36 | 49.48272 | 15.47712 | 36092 ft | 401 kts | 336° |
| 2026-04-24 20:37 | 49.53463 | 15.44610 | 36086 ft | 400 kts | 336° |
| 2026-04-24 20:37 | 49.58603 | 15.41533 | 36084 ft | 399 kts | 336° |
| 2026-04-24 20:38 | 49.63778 | 15.38426 | 36112 ft | 399 kts | 335° |
| 2026-04-24 20:38 | 49.68822 | 15.35391 | 36092 ft | 400 kts | 335° |
| 2026-04-24 20:39 | 49.73927 | 15.32313 | 36094 ft | 400 kts | 335° |
| 2026-04-24 20:39 | 49.78931 | 15.29290 | 36091 ft | 400 kts | 335° |
| 2026-04-24 20:40 | 49.84081 | 15.26170 | 36088 ft | 400 kts | 335° |
| 2026-04-24 20:40 | 49.89272 | 15.23020 | 36093 ft | 401 kts | 335° |
| 2026-04-24 20:41 | 49.94457 | 15.19865 | 36091 ft | 400 kts | 335° |
| 2026-04-24 20:41 | 49.99639 | 15.16705 | 36075 ft | 400 kts | 335° |
| 2026-04-24 20:42 | 50.03940 | 15.14076 | 36091 ft | 400 kts | 335° |
| 2026-04-24 20:43 | 50.04371 | 15.13812 | 36087 ft | 400 kts | 335° |
| 2026-04-24 20:44 | 50.09439 | 15.10708 | 36088 ft | 400 kts | 335° |
| 2026-04-24 20:44 | 50.14619 | 15.07527 | 36089 ft | 400 kts | 335° |
| 2026-04-24 20:45 | 50.18432 | 15.05181 | 36089 ft | 400 kts | 335° |
| 2026-04-24 20:45 | 50.23589 | 15.02002 | 36086 ft | 401 kts | 335° |
| 2026-04-24 20:46 | 50.28325 | 14.99076 | 36083 ft | 401 kts | 335° |
| 2026-04-24 20:46 | 50.33512 | 14.95864 | 36081 ft | 401 kts | 335° |
| 2026-04-24 20:47 | 50.38707 | 14.92639 | 36094 ft | 401 kts | 334° |
| 2026-04-24 20:47 | 50.43860 | 14.89433 | 36091 ft | 402 kts | 334° |
| 2026-04-24 20:48 | 50.48978 | 14.85954 | 36087 ft | 398 kts | 326° |
| 2026-04-24 20:48 | 50.53500 | 14.81058 | 36094 ft | 395 kts | 321° |
| 2026-04-24 20:49 | 50.57970 | 14.76023 | 36099 ft | 395 kts | 321° |
| 2026-04-24 20:49 | 50.62415 | 14.71046 | 36093 ft | 395 kts | 321° |
| 2026-04-24 20:50 | 50.66901 | 14.66036 | 36098 ft | 395 kts | 321° |
| 2026-04-24 20:50 | 50.71385 | 14.61022 | 36076 ft | 395 kts | 321° |
| 2026-04-24 20:51 | 50.75868 | 14.55997 | 36088 ft | 395 kts | 321° |
| 2026-04-24 20:51 | 50.80312 | 14.51001 | 36097 ft | 394 kts | 321° |
| 2026-04-24 20:52 | 50.84784 | 14.45964 | 36090 ft | 395 kts | 321° |
| 2026-04-24 20:52 | 50.89258 | 14.40916 | 36093 ft | 395 kts | 322° |
| 2026-04-24 20:53 | 50.94237 | 14.37078 | 36097 ft | 404 kts | 337° |
| 2026-04-24 20:53 | 50.99806 | 14.35353 | 36099 ft | 411 kts | 347° |
| 2026-04-24 20:54 | 51.05439 | 14.34309 | 36081 ft | 410 kts | 347° |
| 2026-04-24 20:54 | 51.11090 | 14.33259 | 36078 ft | 409 kts | 347° |
| 2026-04-24 20:55 | 51.16730 | 14.32165 | 36105 ft | 408 kts | 346° |
| 2026-04-24 20:55 | 51.22362 | 14.31050 | 36089 ft | 408 kts | 346° |
| 2026-04-24 20:56 | 51.27948 | 14.29935 | 36084 ft | 407 kts | 346° |
| 2026-04-24 20:56 | 51.33575 | 14.28810 | 36081 ft | 407 kts | 346° |
| 2026-04-24 20:57 | 51.39191 | 14.27682 | 36081 ft | 407 kts | 346° |
| 2026-04-24 20:57 | 51.44590 | 14.25404 | 36081 ft | 400 kts | 336° |
| 2026-04-24 20:58 | 51.49876 | 14.22615 | 36078 ft | 400 kts | 336° |
| 2026-04-24 20:58 | 51.55177 | 14.19834 | 36073 ft | 401 kts | 336° |
| 2026-04-24 20:59 | 51.60456 | 14.17105 | 36076 ft | 401 kts | 336° |
| 2026-04-24 20:59 | 51.65778 | 14.14369 | 36075 ft | 402 kts | 337° |
| 2026-04-24 21:00 | 51.71105 | 14.11631 | 36083 ft | 402 kts | 337° |
| 2026-04-24 21:00 | 51.76442 | 14.08882 | 36077 ft | 402 kts | 337° |
| 2026-04-24 21:01 | 51.81770 | 14.06131 | 36076 ft | 402 kts | 337° |
| 2026-04-24 21:01 | 51.87063 | 14.03391 | 36074 ft | 402 kts | 337° |
| 2026-04-24 21:02 | 51.92382 | 14.00630 | 36070 ft | 401 kts | 337° |
| 2026-04-24 21:02 | 51.97696 | 13.97865 | 36090 ft | 401 kts | 337° |
| 2026-04-24 21:03 | 52.03003 | 13.95097 | 36066 ft | 400 kts | 337° |
| 2026-04-24 21:03 | 52.08265 | 13.92345 | 36070 ft | 400 kts | 337° |
| 2026-04-24 21:04 | 52.13554 | 13.89573 | 36086 ft | 399 kts | 337° |
| 2026-04-24 21:04 | 52.18837 | 13.86796 | 36082 ft | 399 kts | 337° |
| 2026-04-24 21:05 | 52.24130 | 13.84006 | 36084 ft | 400 kts | 337° |
| 2026-04-24 21:05 | 52.29394 | 13.81225 | 36077 ft | 400 kts | 337° |
| 2026-04-24 21:06 | 52.34696 | 13.78417 | 36078 ft | 401 kts | 336° |
| 2026-04-24 21:06 | 52.40006 | 13.75599 | 36078 ft | 401 kts | 336° |
| 2026-04-24 21:07 | 52.45315 | 13.72773 | 36087 ft | 401 kts | 336° |
| 2026-04-24 21:07 | 52.50597 | 13.69954 | 36084 ft | 402 kts | 336° |
| 2026-04-24 21:08 | 52.55919 | 13.67108 | 36081 ft | 402 kts | 336° |
| 2026-04-24 21:08 | 52.61239 | 13.64256 | 36076 ft | 402 kts | 336° |
| 2026-04-24 21:09 | 52.66552 | 13.61399 | 36068 ft | 401 kts | 336° |
| 2026-04-24 21:09 | 52.71861 | 13.58538 | 36072 ft | 401 kts | 336° |
| 2026-04-24 21:10 | 52.77129 | 13.55690 | 36072 ft | 401 kts | 336° |
| 2026-04-24 21:10 | 52.82435 | 13.52816 | 36071 ft | 401 kts | 336° |
| 2026-04-24 21:11 | 52.87738 | 13.49935 | 36072 ft | 401 kts | 336° |
| 2026-04-24 21:11 | 52.93039 | 13.47048 | 36071 ft | 401 kts | 336° |
| 2026-04-24 21:12 | 52.97453 | 13.44638 | 36070 ft | 402 kts | 336° |
| 2026-04-24 21:12 | 53.03663 | 13.41239 | 36071 ft | 402 kts | 336° |
| 2026-04-24 21:13 | 53.08941 | 13.38342 | 36064 ft | 402 kts | 336° |
| 2026-04-24 21:13 | 53.14266 | 13.35412 | 36055 ft | 403 kts | 336° |
| 2026-04-24 21:14 | 53.19591 | 13.32474 | 36066 ft | 403 kts | 335° |
| 2026-04-24 21:14 | 53.24885 | 13.29546 | 36054 ft | 404 kts | 335° |
| 2026-04-24 21:15 | 53.30218 | 13.26587 | 36058 ft | 405 kts | 336° |
| 2026-04-24 21:15 | 53.35570 | 13.23611 | 36051 ft | 406 kts | 336° |
| 2026-04-24 21:16 | 53.40931 | 13.20622 | 36050 ft | 406 kts | 336° |
| 2026-04-24 21:16 | 53.46296 | 13.17623 | 36051 ft | 407 kts | 336° |
| 2026-04-24 21:17 | 53.51627 | 13.14635 | 36045 ft | 407 kts | 336° |
| 2026-04-24 21:17 | 53.56089 | 13.12126 | 36054 ft | 408 kts | 336° |
| 2026-04-24 21:18 | 53.62364 | 13.08594 | 36033 ft | 404 kts | 336° |
| 2026-04-24 21:18 | 53.65035 | 13.07086 | 35459 ft | 406 kts | 336° |
| 2026-04-24 21:18 | 53.67686 | 13.05590 | 35095 ft | 399 kts | 336° |
| 2026-04-24 21:19 | 53.70271 | 13.04130 | 34694 ft | 395 kts | 336° |
| 2026-04-24 21:19 | 53.72860 | 13.02664 | 34292 ft | 390 kts | 336° |
| 2026-04-24 21:19 | 53.75417 | 13.01214 | 33897 ft | 386 kts | 335° |
| 2026-04-24 21:19 | 53.77955 | 12.99771 | 33456 ft | 382 kts | 336° |
| 2026-04-24 21:20 | 53.82946 | 12.96928 | 32656 ft | 375 kts | 337° |
| 2026-04-24 21:20 | 53.85400 | 12.95527 | 32288 ft | 371 kts | 337° |
| 2026-04-24 21:20 | 53.87836 | 12.94135 | 31898 ft | 367 kts | 337° |
| 2026-04-24 21:21 | 53.90246 | 12.92757 | 31530 ft | 364 kts | 337° |
| 2026-04-24 21:21 | 53.92600 | 12.91408 | 31170 ft | 360 kts | 337° |
| 2026-04-24 21:21 | 53.94965 | 12.90052 | 30810 ft | 357 kts | 337° |
| 2026-04-24 21:21 | 53.97310 | 12.88706 | 30442 ft | 354 kts | 337° |
| 2026-04-24 21:22 | 53.99635 | 12.87369 | 30078 ft | 351 kts | 337° |
| 2026-04-24 21:22 | 54.01941 | 12.86042 | 29662 ft | 348 kts | 337° |
| 2026-04-24 21:22 | 54.04227 | 12.84725 | 29262 ft | 345 kts | 337° |
| 2026-04-24 21:22 | 54.05724 | 12.83863 | 29008 ft | 342 kts | 337° |
| 2026-04-24 21:23 | 54.08719 | 12.82134 | 28528 ft | 337 kts | 337° |
| 2026-04-24 21:23 | 54.10899 | 12.80874 | 28169 ft | 334 kts | 337° |
| 2026-04-24 21:23 | 54.13084 | 12.79610 | 27783 ft | 330 kts | 337° |
| 2026-04-24 21:23 | 54.15252 | 12.78353 | 27403 ft | 327 kts | 338° |
| 2026-04-24 21:24 | 54.17399 | 12.77108 | 27051 ft | 325 kts | 338° |
| 2026-04-24 21:24 | 54.19538 | 12.75865 | 26690 ft | 324 kts | 338° |
| 2026-04-24 21:24 | 54.21667 | 12.74626 | 26342 ft | 324 kts | 338° |
| 2026-04-24 21:24 | 54.23826 | 12.73367 | 25985 ft | 333 kts | 338° |
| 2026-04-24 21:25 | 54.26047 | 12.72069 | 25601 ft | 340 kts | 338° |
| 2026-04-24 21:25 | 54.28278 | 12.70767 | 25214 ft | 338 kts | 338° |
| 2026-04-24 21:25 | 54.30467 | 12.69491 | 24820 ft | 335 kts | 338° |
| 2026-04-24 21:25 | 54.32665 | 12.68208 | 24442 ft | 333 kts | 338° |
| 2026-04-24 21:26 | 54.34852 | 12.66930 | 24088 ft | 331 kts | 338° |
| 2026-04-24 21:26 | 54.37023 | 12.65660 | 23708 ft | 328 kts | 338° |
| 2026-04-24 21:26 | 54.39175 | 12.64398 | 23297 ft | 326 kts | 338° |
| 2026-04-24 21:26 | 54.41314 | 12.63143 | 22899 ft | 323 kts | 338° |
| 2026-04-24 21:27 | 54.43425 | 12.61903 | 22515 ft | 319 kts | 338° |
| 2026-04-24 21:27 | 54.45515 | 12.60675 | 22145 ft | 315 kts | 338° |
| 2026-04-24 21:27 | 54.47577 | 12.59460 | 21791 ft | 312 kts | 338° |
| 2026-04-24 21:27 | 54.48931 | 12.58662 | 21557 ft | 310 kts | 338° |
| 2026-04-24 21:28 | 54.51640 | 12.57064 | 21087 ft | 305 kts | 338° |
| 2026-04-24 21:28 | 54.53614 | 12.55897 | 20748 ft | 302 kts | 338° |
| 2026-04-24 21:28 | 54.55592 | 12.54727 | 20408 ft | 300 kts | 337° |
| 2026-04-24 21:28 | 54.57556 | 12.53564 | 20073 ft | 297 kts | 337° |
| 2026-04-24 21:29 | 54.59499 | 12.52412 | 19740 ft | 294 kts | 337° |
| 2026-04-24 21:29 | 54.61432 | 12.51265 | 19414 ft | 292 kts | 337° |
| 2026-04-24 21:29 | 54.63346 | 12.50129 | 19099 ft | 290 kts | 337° |
| 2026-04-24 21:29 | 54.65246 | 12.48999 | 18762 ft | 288 kts | 337° |
| 2026-04-24 21:30 | 54.67134 | 12.47875 | 18421 ft | 286 kts | 337° |
| 2026-04-24 21:30 | 54.69011 | 12.46757 | 18067 ft | 284 kts | 337° |
| 2026-04-24 21:30 | 54.70875 | 12.45645 | 17711 ft | 282 kts | 337° |
| 2026-04-24 21:30 | 54.72723 | 12.44542 | 17369 ft | 280 kts | 337° |
| 2026-04-24 21:31 | 54.74549 | 12.43452 | 17044 ft | 277 kts | 337° |
| 2026-04-24 21:31 | 54.76365 | 12.42365 | 16720 ft | 274 kts | 337° |
| 2026-04-24 21:31 | 54.78160 | 12.41291 | 16411 ft | 272 kts | 337° |
| 2026-04-24 21:31 | 54.79939 | 12.40225 | 16103 ft | 269 kts | 337° |
| 2026-04-24 21:32 | 54.81704 | 12.39167 | 15794 ft | 267 kts | 337° |
| 2026-04-24 21:32 | 54.83452 | 12.38117 | 15491 ft | 265 kts | 337° |
| 2026-04-24 21:32 | 54.84625 | 12.37412 | 15279 ft | 263 kts | 337° |
| 2026-04-24 21:32 | 54.86350 | 12.36375 | 14973 ft | 261 kts | 337° |
| 2026-04-24 21:33 | 54.88064 | 12.35344 | 14685 ft | 259 kts | 337° |
| 2026-04-24 21:33 | 54.89762 | 12.34322 | 14415 ft | 258 kts | 337° |
| 2026-04-24 21:33 | 54.91428 | 12.33317 | 14123 ft | 256 kts | 337° |
| 2026-04-24 21:33 | 54.93123 | 12.32384 | 13817 ft | 257 kts | 346° |
| 2026-04-24 21:34 | 54.94932 | 12.32521 | 13551 ft | 264 kts | 7° |
| 2026-04-24 21:34 | 54.96642 | 12.33674 | 13411 ft | 270 kts | 22° |
| 2026-04-24 21:34 | 54.98235 | 12.35472 | 13147 ft | 276 kts | 27° |
| 2026-04-24 21:34 | 54.99839 | 12.37408 | 12855 ft | 287 kts | 28° |
| 2026-04-24 21:35 | 55.01505 | 12.39422 | 12452 ft | 296 kts | 28° |
| 2026-04-24 21:35 | 55.03201 | 12.41433 | 12105 ft | 293 kts | 27° |
| 2026-04-24 21:35 | 55.04882 | 12.43414 | 11781 ft | 290 kts | 27° |
| 2026-04-24 21:35 | 55.06550 | 12.45374 | 11460 ft | 288 kts | 27° |
| 2026-04-24 21:36 | 55.08203 | 12.47314 | 11153 ft | 285 kts | 28° |
| 2026-04-24 21:36 | 55.09841 | 12.49234 | 10845 ft | 283 kts | 28° |
| 2026-04-24 21:36 | 55.11467 | 12.51141 | 10541 ft | 280 kts | 28° |
| 2026-04-24 21:36 | 55.13079 | 12.53034 | 10246 ft | 278 kts | 28° |
| 2026-04-24 21:37 | 55.14663 | 12.54896 | 10107 ft | 270 kts | 28° |
| 2026-04-24 21:37 | 55.16204 | 12.56709 | 9934 ft | 264 kts | 28° |
| 2026-04-24 21:37 | 55.17728 | 12.58500 | 9633 ft | 263 kts | 28° |
| 2026-04-24 21:37 | 55.19239 | 12.60278 | 9348 ft | 261 kts | 28° |
| 2026-04-24 21:38 | 55.20737 | 12.62043 | 9067 ft | 259 kts | 28° |
| 2026-04-24 21:38 | 55.22225 | 12.63799 | 8794 ft | 257 kts | 28° |
| 2026-04-24 21:38 | 55.23712 | 12.65503 | 8530 ft | 253 kts | 24° |
| 2026-04-24 21:38 | 55.25236 | 12.66989 | 8281 ft | 249 kts | 22° |
| 2026-04-24 21:39 | 55.26756 | 12.68421 | 8055 ft | 246 kts | 22° |
| 2026-04-24 21:39 | 55.28254 | 12.69845 | 7807 ft | 244 kts | 22° |
| 2026-04-24 21:39 | 55.29757 | 12.71284 | 7563 ft | 249 kts | 22° |
| 2026-04-24 21:39 | 55.31296 | 12.72763 | 7311 ft | 256 kts | 23° |
| 2026-04-24 21:40 | 55.32880 | 12.74262 | 7038 ft | 257 kts | 19° |
| 2026-04-24 21:40 | 55.34572 | 12.74838 | 6747 ft | 244 kts | 351° |
| 2026-04-24 21:40 | 55.36155 | 12.73994 | 6490 ft | 236 kts | 330° |
| 2026-04-24 21:40 | 55.37433 | 12.72246 | 6222 ft | 232 kts | 312° |
| 2026-04-24 21:41 | 55.38455 | 12.70064 | 5955 ft | 231 kts | 308° |
| 2026-04-24 21:41 | 55.39436 | 12.67843 | 5680 ft | 229 kts | 308° |
| 2026-04-24 21:41 | 55.40412 | 12.65641 | 5408 ft | 227 kts | 308° |
| 2026-04-24 21:41 | 55.41373 | 12.63489 | 5160 ft | 226 kts | 309° |
| 2026-04-24 21:42 | 55.42271 | 12.61240 | 4898 ft | 225 kts | 295° |
| 2026-04-24 21:42 | 55.42533 | 12.58533 | 4653 ft | 229 kts | 269° |
| 2026-04-24 21:42 | 55.42073 | 12.55804 | 4401 ft | 234 kts | 244° |
| 2026-04-24 21:42 | 55.41029 | 12.53675 | 4297 ft | 234 kts | 226° |
| 2026-04-24 21:43 | 55.39796 | 12.51788 | 4190 ft | 237 kts | 225° |
| 2026-04-24 21:43 | 55.38542 | 12.49880 | 4080 ft | 238 kts | 225° |
| 2026-04-24 21:43 | 55.37316 | 12.48009 | 4021 ft | 228 kts | 227° |
| 2026-04-24 21:43 | 55.36211 | 12.46086 | 3943 ft | 218 kts | 230° |
| 2026-04-24 21:44 | 55.35180 | 12.44188 | 3831 ft | 212 kts | 231° |
| 2026-04-24 21:44 | 55.34209 | 12.42261 | 3606 ft | 209 kts | 241° |
| 2026-04-24 21:44 | 55.33825 | 12.39906 | 3362 ft | 200 kts | 276° |
| 2026-04-24 21:44 | 55.34325 | 12.37699 | 3141 ft | 198 kts | 311° |
| 2026-04-24 21:45 | 55.35516 | 12.36491 | 2965 ft | 204 kts | 347° |
| 2026-04-24 21:45 | 55.36948 | 12.36538 | 2864 ft | 209 kts | 3° |
| 2026-04-24 21:45 | 55.38398 | 12.36833 | 2737 ft | 210 kts | 4° |
| 2026-04-24 21:45 | 55.39848 | 12.37145 | 2599 ft | 209 kts | 4° |
| 2026-04-24 21:46 | 55.41268 | 12.37471 | 2537 ft | 199 kts | 4° |
| 2026-04-24 21:46 | 55.42594 | 12.37790 | 2496 ft | 186 kts | 4° |
| 2026-04-24 21:46 | 55.43868 | 12.38098 | 2505 ft | 186 kts | 4° |
| 2026-04-24 21:46 | 55.45096 | 12.38736 | 2491 ft | 190 kts | 31° |
| 2026-04-24 21:47 | 55.46081 | 12.40216 | 2487 ft | 177 kts | 35° |
| 2026-04-24 21:47 | 55.47007 | 12.41543 | 2481 ft | 173 kts | 36° |
| 2026-04-24 21:47 | 55.47932 | 12.42915 | 2491 ft | 175 kts | 37° |
| 2026-04-24 21:47 | 55.48864 | 12.44334 | 2507 ft | 179 kts | 37° |
| 2026-04-24 21:48 | 55.49806 | 12.45783 | 2467 ft | 182 kts | 37° |
| 2026-04-24 21:48 | 55.50764 | 12.47265 | 2227 ft | 183 kts | 37° |
| 2026-04-24 21:48 | 55.51711 | 12.48735 | 1990 ft | 180 kts | 37° |
| 2026-04-24 21:48 | 55.52627 | 12.50158 | 1761 ft | 170 kts | 37° |
| 2026-04-24 21:49 | 55.53473 | 12.51470 | 1582 ft | 156 kts | 36° |
| 2026-04-24 21:49 | 55.54284 | 12.52723 | 1346 ft | 155 kts | 36° |
| 2026-04-24 21:49 | 55.55083 | 12.53998 | 1206 ft | 154 kts | 38° |
| 2026-04-24 21:49 | 55.55893 | 12.55270 | 1055 ft | 156 kts | 36° |
| 2026-04-24 21:50 | 55.56720 | 12.56525 | 874 ft | 157 kts | 37° |
| 2026-04-24 21:50 | 55.57558 | 12.57802 | 593 ft | 160 kts | 36° |
| 2026-04-24 21:50 | 55.58384 | 12.59071 | 302 ft | 155 kts | 38° |
| 2026-04-24 21:50 | 55.59186 | 12.60297 | 68 ft | 151 kts | 37° |
| 2026-04-24 21:51 | 55.59951 | 12.61463 | 24 ft | 133 kts | 39° |
| 2026-04-24 21:51 | 55.60561 | 12.62404 | 25 ft | 100 kts | 39° |
| 2026-04-24 21:51 | 55.60986 | 12.63088 | 24 ft | 62 kts | 41° |
| 2026-04-24 21:51 | 55.61134 | 12.63307 | 27 ft | 17 kts | 32° |
| 2026-04-24 21:52 | 55.61240 | 12.63325 | 28 ft | 16 kts | 354° |
| 2026-04-24 21:52 | 55.61330 | 12.63311 | 23 ft | 8 kts | 355° |
| 2026-04-24 21:52 | 55.61384 | 12.63319 | 23 ft | 8 kts | 26° |
| 2026-04-24 21:52 | 55.61428 | 12.63380 | 26 ft | 9 kts | 40° |
| 2026-04-24 21:53 | 55.61483 | 12.63468 | 23 ft | 13 kts | 43° |
| 2026-04-24 21:53 | 55.61581 | 12.63622 | 23 ft | 23 kts | 40° |
| 2026-04-24 21:53 | 55.61712 | 12.63823 | 26 ft | 25 kts | 41° |
| 2026-04-24 21:53 | 55.61837 | 12.64010 | 23 ft | 19 kts | 40° |
| 2026-04-24 21:54 | 55.61934 | 12.64122 | 26 ft | 15 kts | 24° |
| 2026-04-24 21:54 | 55.62028 | 12.64200 | 27 ft | 15 kts | 26° |
| 2026-04-24 21:54 | 55.62115 | 12.64275 | 26 ft | 14 kts | 25° |
| 2026-04-24 21:54 | 55.62204 | 12.64348 | 21 ft | 15 kts | 25° |
| 2026-04-24 21:55 | 55.62300 | 12.64406 | 22 ft | 14 kts | 13° |
| 2026-04-24 21:55 | 55.62394 | 12.64449 | 23 ft | 13 kts | 10° |
| 2026-04-24 21:55 | 55.62462 | 12.64360 | 23 ft | 13 kts | 308° |
| 2026-04-24 21:55 | 55.62513 | 12.64237 | 25 ft | 12 kts | 304° |
| 2026-04-24 21:56 | 55.62560 | 12.64209 | 23 ft | 7 kts | 13° |
| 2026-04-24 21:56 | 55.62605 | 12.64188 | 27 ft | 7 kts | 316° |
| 2026-04-24 21:56 | 55.62636 | 12.64108 | 25 ft | 8 kts | 303° |
| 2026-04-24 21:56 | 55.62669 | 12.64019 | 27 ft | 9 kts | 303° |
| 2026-04-24 21:57 | 55.62676 | 12.64001 | 25 ft | 2 kts | 309° |
| 2026-04-24 21:57 | 55.62700 | 12.63994 | 23 ft | 4 kts | 14° |
| 2026-04-24 21:57 | 55.62727 | 12.64021 | 25 ft | 5 kts | 32° |
| 2026-04-24 21:57 | 55.62744 | 12.64039 | 24 ft | 0 kts | 33° |